sensor_id;sensor_type;location;lat;lon;timestamp;temperature;humidity
39315;DHT22;28703;44.412;11.918;2023-02-04T00:01:58;7.50;99.90
39315;DHT22;28703;44.412;11.918;2023-02-04T00:04:24;7.50;99.90
39315;DHT22;28703;44.412;11.918;2023-02-04T00:06:50;7.50;99.90
39315;DHT22;28703;44.412;11.918;2023-02-04T00:09:22;7.50;99.90
39315;DHT22;28703;44.412;11.918;2023-02-04T00:11:48;7.50;99.90
39315;DHT22;28703;44.412;11.918;2023-02-04T00:14:14;7.40;99.90
39315;DHT22;28703;44.412;11.918;2023-02-04T00:16:43;7.40;99.90
39315;DHT22;28703;44.412;11.918;2023-02-04T00:19:46;7.40;99.90
39315;DHT22;28703;44.412;11.918;2023-02-04T00:22:12;7.40;99.90
39315;DHT22;28703;44.412;11.918;2023-02-04T00:24:50;7.30;99.90
39315;DHT22;28703;44.412;11.918;2023-02-04T00:27:16;7.30;99.90
39315;DHT22;28703;44.412;11.918;2023-02-04T00:30:24;7.40;99.90
39315;DHT22;28703;44.412;11.918;2023-02-04T00:32:51;7.40;99.90
39315;DHT22;28703;44.412;11.918;2023-02-04T00:35:26;7.40;99.90
39315;DHT22;28703;44.412;11.918;2023-02-04T00:38:03;7.40;99.90
39315;DHT22;28703;44.412;11.918;2023-02-04T00:40:36;7.50;99.90
39315;DHT22;28703;44.412;11.918;2023-02-04T00:43:19;7.40;99.90
39315;DHT22;28703;44.412;11.918;2023-02-04T00:45:55;7.40;99.90
39315;DHT22;28703;44.412;11.918;2023-02-04T00:48:57;7.40;99.90
39315;DHT22;28703;44.412;11.918;2023-02-04T00:51:59;7.30;99.90
39315;DHT22;28703;44.412;11.918;2023-02-04T00:55:08;7.30;99.90
39315;DHT22;28703;44.412;11.918;2023-02-04T00:57:39;7.30;99.90
39315;DHT22;28703;44.412;11.918;2023-02-04T01:00:06;7.30;99.90
39315;DHT22;28703;44.412;11.918;2023-02-04T01:02:32;7.30;99.90
39315;DHT22;28703;44.412;11.918;2023-02-04T01:05:03;7.30;99.90
39315;DHT22;28703;44.412;11.918;2023-02-04T01:07:29;7.30;99.90
39315;DHT22;28703;44.412;11.918;2023-02-04T01:09:55;7.30;99.90
39315;DHT22;28703;44.412;11.918;2023-02-04T01:12:21;7.30;99.90
39315;DHT22;28703;44.412;11.918;2023-02-04T01:14:50;7.30;99.90
39315;DHT22;28703;44.412;11.918;2023-02-04T01:17:22;7.30;99.90
39315;DHT22;28703;44.412;11.918;2023-02-04T01:20:13;7.30;99.90
39315;DHT22;28703;44.412;11.918;2023-02-04T01:22:40;7.30;99.90
39315;DHT22;28703;44.412;11.918;2023-02-04T01:25:06;7.30;99.90
39315;DHT22;28703;44.412;11.918;2023-02-04T01:27:43;7.20;99.90
39315;DHT22;28703;44.412;11.918;2023-02-04T01:30:10;7.10;99.90
39315;DHT22;28703;44.412;11.918;2023-02-04T01:32:36;7.10;99.90
39315;DHT22;28703;44.412;11.918;2023-02-04T01:35:03;7.00;99.90
39315;DHT22;28703;44.412;11.918;2023-02-04T01:37:35;7.00;99.90
39315;DHT22;28703;44.412;11.918;2023-02-04T01:40:08;7.00;99.90
39315;DHT22;28703;44.412;11.918;2023-02-04T01:42:34;6.90;99.90
39315;DHT22;28703;44.412;11.918;2023-02-04T01:45:01;6.80;99.90
39315;DHT22;28703;44.412;11.918;2023-02-04T01:47:31;6.80;99.90
39315;DHT22;28703;44.412;11.918;2023-02-04T01:49:59;6.80;99.90
39315;DHT22;28703;44.412;11.918;2023-02-04T01:52:28;6.80;99.90
39315;DHT22;28703;44.412;11.918;2023-02-04T01:54:54;6.80;99.90
39315;DHT22;28703;44.412;11.918;2023-02-04T01:57:22;6.70;99.90
39315;DHT22;28703;44.412;11.918;2023-02-04T01:59:48;6.60;99.90
39315;DHT22;28703;44.412;11.918;2023-02-04T02:02:40;6.60;99.90
39315;DHT22;28703;44.412;11.918;2023-02-04T02:05:09;6.50;99.90
39315;DHT22;28703;44.412;11.918;2023-02-04T02:07:35;6.50;99.90
39315;DHT22;28703;44.412;11.918;2023-02-04T02:10:06;6.40;99.90
39315;DHT22;28703;44.412;11.918;2023-02-04T02:12:32;6.40;99.90
39315;DHT22;28703;44.412;11.918;2023-02-04T02:14:58;6.40;99.90
39315;DHT22;28703;44.412;11.918;2023-02-04T02:17:25;6.40;99.90
39315;DHT22;28703;44.412;11.918;2023-02-04T02:19:51;6.40;99.90
39315;DHT22;28703;44.412;11.918;2023-02-04T02:22:28;6.40;99.90
39315;DHT22;28703;44.412;11.918;2023-02-04T02:24:57;6.40;99.90
39315;DHT22;28703;44.412;11.918;2023-02-04T02:27:23;6.30;99.90
39315;DHT22;28703;44.412;11.918;2023-02-04T02:29:49;6.30;99.90
39315;DHT22;28703;44.412;11.918;2023-02-04T02:32:16;6.30;99.90
39315;DHT22;28703;44.412;11.918;2023-02-04T02:34:42;6.30;99.90
39315;DHT22;28703;44.412;11.918;2023-02-04T02:37:09;6.30;99.90
39315;DHT22;28703;44.412;11.918;2023-02-04T02:39:37;6.30;99.90
39315;DHT22;28703;44.412;11.918;2023-02-04T02:42:04;6.30;99.90
39315;DHT22;28703;44.412;11.918;2023-02-04T02:44:30;6.30;99.90
39315;DHT22;28703;44.412;11.918;2023-02-04T02:46:57;6.20;99.90
39315;DHT22;28703;44.412;11.918;2023-02-04T02:49:25;6.20;99.90
39315;DHT22;28703;44.412;11.918;2023-02-04T02:51:51;6.20;99.90
39315;DHT22;28703;44.412;11.918;2023-02-04T02:54:33;6.20;99.90
39315;DHT22;28703;44.412;11.918;2023-02-04T02:57:04;6.20;99.90
39315;DHT22;28703;44.412;11.918;2023-02-04T02:59:35;6.20;99.90
39315;DHT22;28703;44.412;11.918;2023-02-04T03:02:02;6.20;99.90
39315;DHT22;28703;44.412;11.918;2023-02-04T03:04:36;6.20;99.90
39315;DHT22;28703;44.412;11.918;2023-02-04T03:07:09;6.20;99.90
39315;DHT22;28703;44.412;11.918;2023-02-04T03:09:37;6.20;99.90
39315;DHT22;28703;44.412;11.918;2023-02-04T03:12:04;6.10;99.90
39315;DHT22;28703;44.412;11.918;2023-02-04T03:14:32;6.10;99.90
39315;DHT22;28703;44.412;11.918;2023-02-04T03:17:00;6.10;99.90
39315;DHT22;28703;44.412;11.918;2023-02-04T03:19:30;6.10;99.90
39315;DHT22;28703;44.412;11.918;2023-02-04T03:22:00;6.10;99.90
39315;DHT22;28703;44.412;11.918;2023-02-04T03:24:36;6.10;99.90
39315;DHT22;28703;44.412;11.918;2023-02-04T03:27:54;6.00;99.90
39315;DHT22;28703;44.412;11.918;2023-02-04T03:33:25;6.00;99.90
39315;DHT22;28703;44.412;11.918;2023-02-04T03:35:57;6.10;99.90
39315;DHT22;28703;44.412;11.918;2023-02-04T03:41:18;6.10;99.90
39315;DHT22;28703;44.412;11.918;2023-02-04T03:43:44;6.10;99.90
39315;DHT22;28703;44.412;11.918;2023-02-04T03:46:10;6.10;99.90
39315;DHT22;28703;44.412;11.918;2023-02-04T03:48:36;6.10;99.90
39315;DHT22;28703;44.412;11.918;2023-02-04T03:51:20;6.10;99.90
39315;DHT22;28703;44.412;11.918;2023-02-04T03:56:33;6.20;99.90
39315;DHT22;28703;44.412;11.918;2023-02-04T03:58:59;6.10;99.90
39315;DHT22;28703;44.412;11.918;2023-02-04T04:01:25;6.10;99.90
39315;DHT22;28703;44.412;11.918;2023-02-04T04:04:10;6.10;99.90
39315;DHT22;28703;44.412;11.918;2023-02-04T04:06:54;6.10;99.90
39315;DHT22;28703;44.412;11.918;2023-02-04T04:12:40;6.10;99.90
39315;DHT22;28703;44.412;11.918;2023-02-04T04:15:25;6.10;99.90
39315;DHT22;28703;44.412;11.918;2023-02-04T04:26:27;6.20;99.90
39315;DHT22;28703;44.412;11.918;2023-02-04T04:29:12;6.30;99.90
39315;DHT22;28703;44.412;11.918;2023-02-04T04:31:38;6.50;99.90
39315;DHT22;28703;44.412;11.918;2023-02-04T04:34:22;6.60;99.90
39315;DHT22;28703;44.412;11.918;2023-02-04T04:37:07;6.70;99.90
39315;DHT22;28703;44.412;11.918;2023-02-04T04:40:22;6.80;99.90
39315;DHT22;28703;44.412;11.918;2023-02-04T04:43:32;6.90;99.90
39315;DHT22;28703;44.412;11.918;2023-02-04T04:45:58;6.90;99.90
39315;DHT22;28703;44.412;11.918;2023-02-04T04:48:49;7.00;99.90
39315;DHT22;28703;44.412;11.918;2023-02-04T04:51:34;7.00;99.90
39315;DHT22;28703;44.412;11.918;2023-02-04T04:57:29;7.10;99.90
39315;DHT22;28703;44.412;11.918;2023-02-04T05:00:16;7.10;99.90
39315;DHT22;28703;44.412;11.918;2023-02-04T05:03:29;7.10;99.90
39315;DHT22;28703;44.412;11.918;2023-02-04T05:06:01;7.20;99.90
39315;DHT22;28703;44.412;11.918;2023-02-04T05:11:14;7.20;99.90
39315;DHT22;28703;44.412;11.918;2023-02-04T05:14:07;7.30;99.90
39315;DHT22;28703;44.412;11.918;2023-02-04T05:16:33;7.30;99.90
39315;DHT22;28703;44.412;11.918;2023-02-04T05:30:01;7.40;99.90
39315;DHT22;28703;44.412;11.918;2023-02-04T05:35:11;7.40;99.90
39315;DHT22;28703;44.412;11.918;2023-02-04T05:37:46;7.50;99.90
39315;DHT22;28703;44.412;11.918;2023-02-04T05:40:12;7.60;99.90
39315;DHT22;28703;44.412;11.918;2023-02-04T05:42:39;7.60;99.90
39315;DHT22;28703;44.412;11.918;2023-02-04T05:45:08;7.60;99.90
39315;DHT22;28703;44.412;11.918;2023-02-04T05:47:39;7.70;99.90
39315;DHT22;28703;44.412;11.918;2023-02-04T05:50:05;7.70;99.90
39315;DHT22;28703;44.412;11.918;2023-02-04T05:52:31;7.70;99.90
39315;DHT22;28703;44.412;11.918;2023-02-04T05:54:57;7.70;99.90
39315;DHT22;28703;44.412;11.918;2023-02-04T05:57:23;7.60;99.90
39315;DHT22;28703;44.412;11.918;2023-02-04T05:59:48;7.60;99.90
39315;DHT22;28703;44.412;11.918;2023-02-04T06:02:14;7.60;99.90
39315;DHT22;28703;44.412;11.918;2023-02-04T06:04:43;7.60;99.90
39315;DHT22;28703;44.412;11.918;2023-02-04T06:07:12;7.70;99.90
39315;DHT22;28703;44.412;11.918;2023-02-04T06:09:41;7.70;99.90
39315;DHT22;28703;44.412;11.918;2023-02-04T06:12:56;7.70;99.90
39315;DHT22;28703;44.412;11.918;2023-02-04T06:15:43;7.70;99.90
39315;DHT22;28703;44.412;11.918;2023-02-04T06:18:27;7.70;99.90
39315;DHT22;28703;44.412;11.918;2023-02-04T06:20:53;7.70;99.90
39315;DHT22;28703;44.412;11.918;2023-02-04T06:23:23;7.70;99.90
39315;DHT22;28703;44.412;11.918;2023-02-04T06:26:09;7.70;99.90
39315;DHT22;28703;44.412;11.918;2023-02-04T06:31:39;7.80;99.90
39315;DHT22;28703;44.412;11.918;2023-02-04T06:34:05;7.80;99.90
39315;DHT22;28703;44.412;11.918;2023-02-04T06:36:50;7.80;99.90
39315;DHT22;28703;44.412;11.918;2023-02-04T06:39:26;7.70;99.90
39315;DHT22;28703;44.412;11.918;2023-02-04T06:42:12;7.70;99.90
39315;DHT22;28703;44.412;11.918;2023-02-04T06:44:44;7.70;99.90
39315;DHT22;28703;44.412;11.918;2023-02-04T06:47:27;7.70;99.90
39315;DHT22;28703;44.412;11.918;2023-02-04T06:49:56;7.70;99.90
39315;DHT22;28703;44.412;11.918;2023-02-04T06:52:23;7.70;99.90
39315;DHT22;28703;44.412;11.918;2023-02-04T06:55:22;7.60;99.90
39315;DHT22;28703;44.412;11.918;2023-02-04T06:58:06;7.50;99.90
39315;DHT22;28703;44.412;11.918;2023-02-04T07:05:07;7.50;99.90
39315;DHT22;28703;44.412;11.918;2023-02-04T07:32:44;7.50;99.90
39315;DHT22;28703;44.412;11.918;2023-02-04T07:38:05;7.60;99.90
39315;DHT22;28703;44.412;11.918;2023-02-04T07:40:49;7.60;99.90
39315;DHT22;28703;44.412;11.918;2023-02-04T07:43:52;7.60;99.90
39315;DHT22;28703;44.412;11.918;2023-02-04T07:46:41;7.60;99.90
39315;DHT22;28703;44.412;11.918;2023-02-04T07:49:27;7.70;99.90
39315;DHT22;28703;44.412;11.918;2023-02-04T07:52:13;7.70;99.90
39315;DHT22;28703;44.412;11.918;2023-02-04T07:54:46;7.70;99.90
39315;DHT22;28703;44.412;11.918;2023-02-04T07:57:31;7.70;99.90
39315;DHT22;28703;44.412;11.918;2023-02-04T08:00:19;7.70;99.90
39315;DHT22;28703;44.412;11.918;2023-02-04T08:02:58;7.70;99.90
39315;DHT22;28703;44.412;11.918;2023-02-04T08:05:24;7.70;99.90
39315;DHT22;28703;44.412;11.918;2023-02-04T08:07:52;7.80;99.90
39315;DHT22;28703;44.412;11.918;2023-02-04T08:10:46;7.90;99.90
39315;DHT22;28703;44.412;11.918;2023-02-04T08:13:12;8.10;99.90
39315;DHT22;28703;44.412;11.918;2023-02-04T08:15:38;8.10;99.90
39315;DHT22;28703;44.412;11.918;2023-02-04T08:18:04;8.10;99.90
39315;DHT22;28703;44.412;11.918;2023-02-04T08:20:33;8.20;99.90
39315;DHT22;28703;44.412;11.918;2023-02-04T08:23:18;8.20;99.90
39315;DHT22;28703;44.412;11.918;2023-02-04T08:25:50;8.30;99.90
39315;DHT22;28703;44.412;11.918;2023-02-04T08:28:35;8.30;99.90
39315;DHT22;28703;44.412;11.918;2023-02-04T08:31:32;8.30;99.90
39315;DHT22;28703;44.412;11.918;2023-02-04T08:34:17;8.40;99.90
39315;DHT22;28703;44.412;11.918;2023-02-04T08:37:01;8.40;99.90
39315;DHT22;28703;44.412;11.918;2023-02-04T08:42:14;8.50;99.90
39315;DHT22;28703;44.412;11.918;2023-02-04T08:44:40;8.50;99.90
39315;DHT22;28703;44.412;11.918;2023-02-04T08:47:07;8.60;99.90
39315;DHT22;28703;44.412;11.918;2023-02-04T08:49:51;8.60;99.90
39315;DHT22;28703;44.412;11.918;2023-02-04T08:52:36;8.60;99.90
39315;DHT22;28703;44.412;11.918;2023-02-04T08:55:31;8.60;99.90
39315;DHT22;28703;44.412;11.918;2023-02-04T08:57:57;8.60;99.90
39315;DHT22;28703;44.412;11.918;2023-02-04T09:00:24;8.50;99.90
39315;DHT22;28703;44.412;11.918;2023-02-04T09:03:28;8.60;99.90
39315;DHT22;28703;44.412;11.918;2023-02-04T09:08:57;8.70;99.90
39315;DHT22;28703;44.412;11.918;2023-02-04T09:11:48;8.70;99.90
39315;DHT22;28703;44.412;11.918;2023-02-04T09:14:14;8.80;99.90
39315;DHT22;28703;44.412;11.918;2023-02-04T09:16:40;8.90;99.90
39315;DHT22;28703;44.412;11.918;2023-02-04T09:19:06;8.90;99.90
39315;DHT22;28703;44.412;11.918;2023-02-04T09:30:24;9.10;99.90
39315;DHT22;28703;44.412;11.918;2023-02-04T09:32:57;9.20;99.90
39315;DHT22;28703;44.412;11.918;2023-02-04T09:35:45;9.30;99.90
39315;DHT22;28703;44.412;11.918;2023-02-04T09:38:13;9.40;99.90
39315;DHT22;28703;44.412;11.918;2023-02-04T09:40:48;9.50;99.90
39315;DHT22;28703;44.412;11.918;2023-02-04T09:44:02;9.50;99.90
39315;DHT22;28703;44.412;11.918;2023-02-04T09:46:29;9.60;99.90
39315;DHT22;28703;44.412;11.918;2023-02-04T09:48:58;9.70;99.90
39315;DHT22;28703;44.412;11.918;2023-02-04T09:51:29;9.80;99.90
39315;DHT22;28703;44.412;11.918;2023-02-04T09:54:06;9.80;99.90
39315;DHT22;28703;44.412;11.918;2023-02-04T09:59:55;9.90;99.90
39315;DHT22;28703;44.412;11.918;2023-02-04T10:02:33;10.00;99.90
39315;DHT22;28703;44.412;11.918;2023-02-04T10:04:59;10.20;99.90
39315;DHT22;28703;44.412;11.918;2023-02-04T10:12:34;10.30;99.90
39315;DHT22;28703;44.412;11.918;2023-02-04T10:15:37;10.40;99.90
39315;DHT22;28703;44.412;11.918;2023-02-04T10:18:29;10.50;99.90
39315;DHT22;28703;44.412;11.918;2023-02-04T10:21:16;10.60;99.90
39315;DHT22;28703;44.412;11.918;2023-02-04T10:23:47;10.70;99.90
39315;DHT22;28703;44.412;11.918;2023-02-04T10:26:15;10.80;99.90
39315;DHT22;28703;44.412;11.918;2023-02-04T10:29:03;10.80;99.90
39315;DHT22;28703;44.412;11.918;2023-02-04T10:34:42;11.00;99.90
39315;DHT22;28703;44.412;11.918;2023-02-04T10:37:18;11.10;99.90
39315;DHT22;28703;44.412;11.918;2023-02-04T10:39:47;11.20;99.90
39315;DHT22;28703;44.412;11.918;2023-02-04T10:42:46;11.20;99.90
39315;DHT22;28703;44.412;11.918;2023-02-04T10:48:18;11.40;99.90
39315;DHT22;28703;44.412;11.918;2023-02-04T10:50:45;11.40;99.90
39315;DHT22;28703;44.412;11.918;2023-02-04T10:53:22;11.60;99.90
39315;DHT22;28703;44.412;11.918;2023-02-04T10:56:22;11.60;99.90
39315;DHT22;28703;44.412;11.918;2023-02-04T10:59:04;11.70;99.90
39315;DHT22;28703;44.412;11.918;2023-02-04T11:05:28;11.80;99.90
39315;DHT22;28703;44.412;11.918;2023-02-04T11:08:26;11.80;99.90
39315;DHT22;28703;44.412;11.918;2023-02-04T11:11:20;11.90;99.90
39315;DHT22;28703;44.412;11.918;2023-02-04T11:14:24;12.00;99.90
39315;DHT22;28703;44.412;11.918;2023-02-04T11:19:41;12.10;99.90
39315;DHT22;28703;44.412;11.918;2023-02-04T11:25:00;12.20;99.90
39315;DHT22;28703;44.412;11.918;2023-02-04T11:30:31;12.30;99.90
39315;DHT22;28703;44.412;11.918;2023-02-04T11:33:23;12.40;99.90
39315;DHT22;28703;44.412;11.918;2023-02-04T11:36:10;12.40;99.90
39315;DHT22;28703;44.412;11.918;2023-02-04T11:38:56;12.50;99.90
39315;DHT22;28703;44.412;11.918;2023-02-04T11:41:34;12.50;99.90
39315;DHT22;28703;44.412;11.918;2023-02-04T11:44:37;12.60;99.90
39315;DHT22;28703;44.412;11.918;2023-02-04T11:47:06;12.70;99.90
39315;DHT22;28703;44.412;11.918;2023-02-04T11:49:35;12.70;99.90
39315;DHT22;28703;44.412;11.918;2023-02-04T11:52:06;12.80;99.90
39315;DHT22;28703;44.412;11.918;2023-02-04T11:54:37;12.90;99.90
39315;DHT22;28703;44.412;11.918;2023-02-04T11:57:03;12.90;99.90
39315;DHT22;28703;44.412;11.918;2023-02-04T11:59:48;12.90;99.90
39315;DHT22;28703;44.412;11.918;2023-02-04T12:05:19;13.00;99.90
39315;DHT22;28703;44.412;11.918;2023-02-04T12:13:28;13.00;99.90
39315;DHT22;28703;44.412;11.918;2023-02-04T12:18:26;13.20;99.90
39315;DHT22;28703;44.412;11.918;2023-02-04T12:20:56;13.20;99.90
39315;DHT22;28703;44.412;11.918;2023-02-04T12:26:44;13.30;99.90
39315;DHT22;28703;44.412;11.918;2023-02-04T12:29:10;13.30;99.90
39315;DHT22;28703;44.412;11.918;2023-02-04T12:31:36;13.30;99.90
39315;DHT22;28703;44.412;11.918;2023-02-04T12:34:02;13.40;99.90
39315;DHT22;28703;44.412;11.918;2023-02-04T12:36:28;13.40;99.90
39315;DHT22;28703;44.412;11.918;2023-02-04T12:39:03;13.40;99.90
39315;DHT22;28703;44.412;11.918;2023-02-04T12:41:35;13.40;99.90
39315;DHT22;28703;44.412;11.918;2023-02-04T12:44:01;13.40;99.90
39315;DHT22;28703;44.412;11.918;2023-02-04T12:46:30;13.40;99.90
39315;DHT22;28703;44.412;11.918;2023-02-04T12:48:57;13.30;99.90
39315;DHT22;28703;44.412;11.918;2023-02-04T12:51:23;13.30;99.90
39315;DHT22;28703;44.412;11.918;2023-02-04T12:54:09;13.20;99.90
39315;DHT22;28703;44.412;11.918;2023-02-04T12:56:35;13.10;99.90
39315;DHT22;28703;44.412;11.918;2023-02-04T13:01:45;12.90;99.90
39315;DHT22;28703;44.412;11.918;2023-02-04T13:04:30;12.80;99.90
39315;DHT22;28703;44.412;11.918;2023-02-04T13:09:54;12.60;99.90
39315;DHT22;28703;44.412;11.918;2023-02-04T13:18:13;12.70;99.90
39315;DHT22;28703;44.412;11.918;2023-02-04T13:20:58;12.60;99.90
39315;DHT22;28703;44.412;11.918;2023-02-04T13:23:43;12.60;99.90
39315;DHT22;28703;44.412;11.918;2023-02-04T13:26:09;12.70;99.90
39315;DHT22;28703;44.412;11.918;2023-02-04T13:28:54;12.70;99.90
39315;DHT22;28703;44.412;11.918;2023-02-04T13:34:04;12.90;99.90
39315;DHT22;28703;44.412;11.918;2023-02-04T13:36:30;12.90;99.90
39315;DHT22;28703;44.412;11.918;2023-02-04T13:38:56;13.00;99.90
39315;DHT22;28703;44.412;11.918;2023-02-04T13:41:41;13.10;99.90
39315;DHT22;28703;44.412;11.918;2023-02-04T13:44:07;13.10;99.90
39315;DHT22;28703;44.412;11.918;2023-02-04T13:46:33;13.20;99.90
39315;DHT22;28703;44.412;11.918;2023-02-04T13:52:02;13.00;99.90
39315;DHT22;28703;44.412;11.918;2023-02-04T13:54:28;12.90;99.90
39315;DHT22;28703;44.412;11.918;2023-02-04T13:56:54;13.00;99.90
39315;DHT22;28703;44.412;11.918;2023-02-04T14:02:04;13.20;99.90
39315;DHT22;28703;44.412;11.918;2023-02-04T14:04:30;13.30;99.90
39315;DHT22;28703;44.412;11.918;2023-02-04T14:06:56;13.40;99.90
39315;DHT22;28703;44.412;11.918;2023-02-04T14:09:22;13.50;99.90
39315;DHT22;28703;44.412;11.918;2023-02-04T14:11:50;13.60;99.90
39315;DHT22;28703;44.412;11.918;2023-02-04T14:17:01;13.70;99.90
39315;DHT22;28703;44.412;11.918;2023-02-04T14:19:45;13.80;99.90
39315;DHT22;28703;44.412;11.918;2023-02-04T14:22:11;13.90;99.90
39315;DHT22;28703;44.412;11.918;2023-02-04T14:24:38;13.90;99.90
39315;DHT22;28703;44.412;11.918;2023-02-04T14:27:28;14.00;99.90
39315;DHT22;28703;44.412;11.918;2023-02-04T14:29:54;14.10;99.90
39315;DHT22;28703;44.412;11.918;2023-02-04T14:32:20;14.20;99.90
39315;DHT22;28703;44.412;11.918;2023-02-04T14:34:46;14.30;99.90
39315;DHT22;28703;44.412;11.918;2023-02-04T14:37:12;14.40;99.90
39315;DHT22;28703;44.412;11.918;2023-02-04T14:39:38;14.60;99.90
39315;DHT22;28703;44.412;11.918;2023-02-04T14:42:23;14.70;99.90
39315;DHT22;28703;44.412;11.918;2023-02-04T14:44:49;14.90;99.90
39315;DHT22;28703;44.412;11.918;2023-02-04T14:47:34;14.90;99.90
39315;DHT22;28703;44.412;11.918;2023-02-04T14:50:19;15.00;99.90
39315;DHT22;28703;44.412;11.918;2023-02-04T14:53:10;15.10;99.90
39315;DHT22;28703;44.412;11.918;2023-02-04T14:55:36;15.30;99.90
39315;DHT22;28703;44.412;11.918;2023-02-04T14:58:04;15.30;99.90
39315;DHT22;28703;44.412;11.918;2023-02-04T15:00:30;15.50;99.90
39315;DHT22;28703;44.412;11.918;2023-02-04T15:02:56;15.60;99.90
39315;DHT22;28703;44.412;11.918;2023-02-04T15:05:22;15.80;99.90
39315;DHT22;28703;44.412;11.918;2023-02-04T15:07:51;15.90;99.90
39315;DHT22;28703;44.412;11.918;2023-02-04T15:13:01;16.20;99.90
39315;DHT22;28703;44.412;11.918;2023-02-04T15:15:27;16.20;99.90
39315;DHT22;28703;44.412;11.918;2023-02-04T15:17:56;16.30;99.90
39315;DHT22;28703;44.412;11.918;2023-02-04T15:20:23;16.50;99.90
39315;DHT22;28703;44.412;11.918;2023-02-04T15:22:49;16.70;99.90
39315;DHT22;28703;44.412;11.918;2023-02-04T15:25:17;16.80;99.90
39315;DHT22;28703;44.412;11.918;2023-02-04T15:30:53;17.10;99.90
39315;DHT22;28703;44.412;11.918;2023-02-04T15:33:57;16.90;99.90
39315;DHT22;28703;44.412;11.918;2023-02-04T15:36:23;16.80;99.90
39315;DHT22;28703;44.412;11.918;2023-02-04T15:39:00;16.60;99.90
39315;DHT22;28703;44.412;11.918;2023-02-04T15:41:27;16.40;99.90
39315;DHT22;28703;44.412;11.918;2023-02-04T15:43:53;16.10;99.90
39315;DHT22;28703;44.412;11.918;2023-02-04T15:46:20;15.90;99.90
39315;DHT22;28703;44.412;11.918;2023-02-04T15:51:35;15.50;99.90
39315;DHT22;28703;44.412;11.918;2023-02-04T15:54:01;15.20;99.90
39315;DHT22;28703;44.412;11.918;2023-02-04T16:03:23;14.40;99.90
39315;DHT22;28703;44.412;11.918;2023-02-04T16:06:08;14.10;99.90
39315;DHT22;28703;44.412;11.918;2023-02-04T16:08:34;14.00;99.90
39315;DHT22;28703;44.412;11.918;2023-02-04T16:10:59;13.80;99.90
39315;DHT22;28703;44.412;11.918;2023-02-04T16:13:44;13.60;99.90
39315;DHT22;28703;44.412;11.918;2023-02-04T16:16:11;13.50;99.90
39315;DHT22;28703;44.412;11.918;2023-02-04T16:18:37;13.30;99.90
39315;DHT22;28703;44.412;11.918;2023-02-04T16:21:03;13.20;99.90
39315;DHT22;28703;44.412;11.918;2023-02-04T16:23:48;13.10;99.90
39315;DHT22;28703;44.412;11.918;2023-02-04T16:26:14;13.00;99.90
39315;DHT22;28703;44.412;11.918;2023-02-04T16:28:58;12.80;99.90
39315;DHT22;28703;44.412;11.918;2023-02-04T16:31:24;12.70;99.90
39315;DHT22;28703;44.412;11.918;2023-02-04T16:33:50;12.60;99.90
39315;DHT22;28703;44.412;11.918;2023-02-04T16:36:16;12.50;99.90
39315;DHT22;28703;44.412;11.918;2023-02-04T16:38:43;12.50;99.90
39315;DHT22;28703;44.412;11.918;2023-02-04T16:41:27;12.40;99.90
39315;DHT22;28703;44.412;11.918;2023-02-04T16:43:53;12.40;99.90
39315;DHT22;28703;44.412;11.918;2023-02-04T16:46:38;12.30;99.90
39315;DHT22;28703;44.412;11.918;2023-02-04T16:51:51;12.10;99.90
39315;DHT22;28703;44.412;11.918;2023-02-04T16:54:57;12.10;99.90
39315;DHT22;28703;44.412;11.918;2023-02-04T17:06:06;11.80;99.90
39315;DHT22;28703;44.412;11.918;2023-02-04T17:08:45;11.70;99.90
39315;DHT22;28703;44.412;11.918;2023-02-04T17:11:12;11.60;99.90
39315;DHT22;28703;44.412;11.918;2023-02-04T17:13:58;11.60;99.90
39315;DHT22;28703;44.412;11.918;2023-02-04T17:16:25;11.60;99.90
39315;DHT22;28703;44.412;11.918;2023-02-04T17:19:11;11.50;99.90
39315;DHT22;28703;44.412;11.918;2023-02-04T17:24:28;11.50;99.90
39315;DHT22;28703;44.412;11.918;2023-02-04T17:26:56;11.40;99.90
39315;DHT22;28703;44.412;11.918;2023-02-04T17:33:02;11.30;99.90
39315;DHT22;28703;44.412;11.918;2023-02-04T17:35:36;11.30;99.90
39315;DHT22;28703;44.412;11.918;2023-02-04T17:38:31;11.30;99.90
39315;DHT22;28703;44.412;11.918;2023-02-04T17:41:00;11.20;99.90
39315;DHT22;28703;44.412;11.918;2023-02-04T17:43:27;11.20;99.90
39315;DHT22;28703;44.412;11.918;2023-02-04T17:45:59;11.20;99.90
39315;DHT22;28703;44.412;11.918;2023-02-04T17:48:25;11.20;99.90
39315;DHT22;28703;44.412;11.918;2023-02-04T17:51:15;11.20;99.90
39315;DHT22;28703;44.412;11.918;2023-02-04T17:53:41;11.20;99.90
39315;DHT22;28703;44.412;11.918;2023-02-04T17:56:12;11.20;99.90
39315;DHT22;28703;44.412;11.918;2023-02-04T17:58:39;11.10;99.90
39315;DHT22;28703;44.412;11.918;2023-02-04T18:01:14;11.10;99.90
39315;DHT22;28703;44.412;11.918;2023-02-04T18:07:26;11.10;99.90
39315;DHT22;28703;44.412;11.918;2023-02-04T18:10:16;11.00;99.90
39315;DHT22;28703;44.412;11.918;2023-02-04T18:12:59;11.00;99.90
39315;DHT22;28703;44.412;11.918;2023-02-04T18:15:49;11.00;99.90
39315;DHT22;28703;44.412;11.918;2023-02-04T18:23:39;11.00;99.90
39315;DHT22;28703;44.412;11.918;2023-02-04T18:26:17;10.90;99.90
39315;DHT22;28703;44.412;11.918;2023-02-04T18:28:47;10.90;99.90
39315;DHT22;28703;44.412;11.918;2023-02-04T18:32:02;10.90;99.90
39315;DHT22;28703;44.412;11.918;2023-02-04T18:38:31;10.70;99.90
39315;DHT22;28703;44.412;11.918;2023-02-04T18:43:42;10.50;99.90
39315;DHT22;28703;44.412;11.918;2023-02-04T18:56:17;10.40;99.90
39315;DHT22;28703;44.412;11.918;2023-02-04T19:01:41;10.30;99.90
39315;DHT22;28703;44.412;11.918;2023-02-04T19:04:30;10.40;99.90
39315;DHT22;28703;44.412;11.918;2023-02-04T19:10:38;10.40;99.90
39315;DHT22;28703;44.412;11.918;2023-02-04T19:23:36;10.20;99.90
39315;DHT22;28703;44.412;11.918;2023-02-04T19:29:46;10.20;99.90
39315;DHT22;28703;44.412;11.918;2023-02-04T19:32:27;10.10;99.90
39315;DHT22;28703;44.412;11.918;2023-02-04T19:35:07;10.20;99.90
39315;DHT22;28703;44.412;11.918;2023-02-04T19:40:33;10.10;99.90
39315;DHT22;28703;44.412;11.918;2023-02-04T19:43:38;10.10;99.90
39315;DHT22;28703;44.412;11.918;2023-02-04T19:52:36;9.90;99.90
39315;DHT22;28703;44.412;11.918;2023-02-04T19:58:28;9.90;99.90
39315;DHT22;28703;44.412;11.918;2023-02-04T20:09:21;9.80;99.90
39315;DHT22;28703;44.412;11.918;2023-02-04T20:15:20;9.70;99.90
39315;DHT22;28703;44.412;11.918;2023-02-04T20:17:50;9.70;99.90
39315;DHT22;28703;44.412;11.918;2023-02-04T20:24:13;9.60;99.90
39315;DHT22;28703;44.412;11.918;2023-02-04T20:26:52;9.50;99.90
39315;DHT22;28703;44.412;11.918;2023-02-04T20:29:39;9.50;99.90
39315;DHT22;28703;44.412;11.918;2023-02-04T20:32:26;9.50;99.90
39315;DHT22;28703;44.412;11.918;2023-02-04T20:38:34;9.50;99.90